Time;durP1;ratioP1;P1;durP2;ratioP2;P2;SDS_P1;SDS_P2;PMS_P1;PMS_P2;Temp;Humidity;BMP_temperature;BMP_pressure;BME280_temperature;BME280_humidity;BME280_pressure;Samples;Min_cycle;Max_cycle;Signal;HPM_P1;HPM_P2
2023/01/11 00:01:31;;;;;;;0.30;0.30;;;;;;;7.97;83.91;100416.28;5130421;28;20053;-80
2023/01/11 00:04:01;;;;;;;0.30;0.30;;;;;;;7.85;84.83;100420.03;5144452;28;20030;-80
2023/01/11 00:06:32;;;;;;;0.30;0.30;;;;;;;7.88;84.44;100416.47;5165053;28;20067;-81
2023/01/11 00:09:02;;;;;;;0.30;0.30;;;;;;;7.91;84.22;100420.78;5140503;28;20042;-82
2023/01/11 00:11:33;;;;;;;0.30;0.30;;;;;;;7.89;84.37;100410.38;5136723;28;20557;-79
2023/01/11 00:14:03;;;;;;;0.30;0.30;;;;;;;7.97;84.16;100410.22;5138040;28;20131;-80
2023/01/11 00:16:34;;;;;;;1.65;0.90;;;;;;;7.99;84.43;100411.03;5139763;28;20114;-81
2023/01/11 00:19:04;;;;;;;0.30;0.30;;;;;;;7.93;84.72;100403.31;5135762;28;20118;-81
2023/01/11 00:21:35;;;;;;;0.25;0.25;;;;;;;7.96;84.48;100408.50;5138870;28;20043;-80
2023/01/11 00:24:05;;;;;;;0.30;0.30;;;;;;;8.01;84.10;100401.41;5136514;28;20061;-81
2023/01/11 00:26:36;;;;;;;0.30;0.30;;;;;;;8.04;84.79;100406.59;5136791;28;20035;-81
2023/01/11 00:29:06;;;;;;;0.30;0.30;;;;;;;8.04;84.76;100403.97;5138372;28;20038;-82
2023/01/11 00:31:36;;;;;;;0.25;0.25;;;;;;;8.10;84.12;100408.22;5149928;28;20100;-81
2023/01/11 00:34:07;;;;;;;0.30;0.30;;;;;;;8.04;84.74;100402.19;5136656;28;20078;-80
2023/01/11 00:36:37;;;;;;;0.30;0.30;;;;;;;8.07;84.57;100401.28;5135915;28;20184;-80
2023/01/11 00:39:08;;;;;;;0.30;0.30;;;;;;;8.03;84.91;100400.47;5152406;28;20034;-81
2023/01/11 00:50:06;;;;;;;0.20;0.20;;;;;;;8.14;85.14;100381.94;5152973;28;20690;-80
2023/01/11 00:52:36;;;;;;;0.25;0.25;;;;;;;8.06;85.85;100376.03;5144401;28;20035;-80
2023/01/11 00:55:07;;;;;;;0.25;0.25;;;;;;;8.11;85.58;100376.81;5132998;28;20027;-80
2023/01/11 00:57:38;;;;;;;0.30;0.30;;;;;;;8.14;86.07;100374.09;5131644;28;20046;-81
2023/01/11 01:00:09;;;;;;;0.20;0.20;;;;;;;8.18;86.86;100377.53;5125393;28;20026;-82
2023/01/11 01:02:39;;;;;;;0.40;0.40;;;;;;;8.33;87.10;100376.31;5153242;28;20038;-81
2023/01/11 01:05:11;;;;;;;0.30;0.30;;;;;;;8.36;87.42;100381.47;5136784;28;20035;-81
2023/01/11 01:07:41;;;;;;;0.30;0.30;;;;;;;8.38;87.12;100379.69;5135796;28;20035;-82
2023/01/11 01:10:14;;;;;;;0.20;0.20;;;;;;;8.50;88.43;100374.19;5152584;28;20178;-80
2023/01/11 01:15:34;;;;;;;0.20;0.20;;;;;;;8.57;87.82;100372.28;5137777;28;20034;-82
2023/01/11 01:18:05;;;;;;;0.30;0.30;;;;;;;8.56;87.90;100360.09;5152870;28;20717;-80
2023/01/11 01:20:35;;;;;;;0.30;0.30;;;;;;;8.65;88.36;100366.84;5121357;28;20382;-81
2023/01/11 01:23:06;;;;;;;0.25;0.25;;;;;;;8.65;88.47;100354.66;5136146;28;20035;-81
2023/01/11 01:25:36;;;;;;;0.50;0.50;;;;;;;8.74;88.14;100356.16;5119195;28;20039;-82
2023/01/11 01:28:07;;;;;;;0.28;0.28;;;;;;;8.78;87.88;100346.47;5155607;28;20190;-81
2023/01/11 01:30:39;;;;;;;0.68;0.68;;;;;;;8.76;88.09;100341.28;5161682;28;20728;-81
2023/01/11 01:33:09;;;;;;;0.30;0.30;;;;;;;8.76;88.14;100343.06;5134946;28;20701;-81
2023/01/11 01:35:39;;;;;;;0.30;0.30;;;;;;;8.84;88.08;100345.47;5127885;28;20159;-80
2023/01/11 01:38:10;;;;;;;0.40;0.40;;;;;;;8.92;87.60;100338.28;5152789;28;20040;-79
2023/01/11 01:40:42;;;;;;;0.20;0.20;;;;;;;8.92;87.59;100348.75;5155594;28;20045;-80
2023/01/11 01:43:15;;;;;;;0.30;0.30;;;;;;;8.93;87.62;100338.22;5153154;28;20061;-79
2023/01/11 01:45:48;;;;;;;0.30;0.30;;;;;;;8.96;88.37;100339.94;5166880;28;20043;-82
2023/01/11 01:48:22;;;;;;;0.30;0.30;;;;;;;9.08;87.52;100343.97;5141744;28;20551;-81
2023/01/11 01:50:58;;;;;;;0.30;0.30;;;;;;;9.08;87.65;100336.97;5136721;28;20046;-81
2023/01/11 01:53:35;;;;;;;0.30;0.30;;;;;;;9.10;87.34;100343.03;5136446;28;20034;-81
2023/01/11 01:56:14;;;;;;;0.20;0.20;;;;;;;9.07;87.48;100343.09;5135344;28;20673;-80
2023/01/11 01:58:53;;;;;;;0.30;0.30;;;;;;;9.16;87.34;100339.41;5138390;28;20031;-82
2023/01/11 02:04:36;;;;;;;0.25;0.25;;;;;;;9.28;86.78;100335.56;5136926;28;20066;-80
2023/01/11 02:07:15;;;;;;;0.20;0.20;;;;;;;9.27;87.13;100339.09;5151007;28;20035;-82
2023/01/11 02:09:55;;;;;;;0.20;0.20;;;;;;;9.34;86.95;100335.41;5157428;28;20085;-79
2023/01/11 02:12:29;;;;;;;0.20;0.20;;;;;;;9.38;86.75;100328.31;5142149;28;20035;-81
2023/01/11 02:15:00;;;;;;;0.25;0.25;;;;;;;9.37;87.46;100322.22;5118080;28;20114;-82
2023/01/11 02:17:30;;;;;;;0.30;0.30;;;;;;;9.43;87.69;100324.66;5154012;28;20605;-81
2023/01/11 02:20:37;;;;;;;0.20;0.20;;;;;;;9.40;88.39;100327.34;5120487;28;20019;-80
2023/01/11 02:23:26;;;;;;;0.20;0.20;;;;;;;9.44;89.06;100330.75;5135345;28;20126;-81
2023/01/11 02:26:28;;;;;;;0.20;0.20;;;;;;;9.54;89.75;100313.03;5136971;28;20089;-81
2023/01/11 02:29:03;;;;;;;0.20;0.20;;;;;;;9.53;90.11;100306.06;5116320;28;20410;-81
2023/01/11 02:31:46;;;;;;;0.20;0.20;;;;;;;9.51;90.64;100298.25;5137035;28;20037;-81
2023/01/11 02:34:31;;;;;;;0.30;0.30;;;;;;;9.52;90.65;100297.34;5154257;28;20041;-81
2023/01/11 02:37:33;;;;;;;9.02;1.30;;;;;;;9.52;91.38;100296.50;5125640;28;20086;-80
2023/01/11 02:40:14;;;;;;;0.30;0.30;;;;;;;9.58;91.80;100291.06;5128189;28;20043;-79
2023/01/11 02:45:46;;;;;;;0.20;0.20;;;;;;;9.58;91.56;100285.81;5149015;28;20039;-81
2023/01/11 02:48:33;;;;;;;0.30;0.30;;;;;;;9.59;91.27;100290.16;5135522;28;20660;-80
2023/01/11 02:51:11;;;;;;;0.40;0.40;;;;;;;9.59;91.00;100291.00;5138761;28;20126;-81
2023/01/11 02:53:55;;;;;;;0.20;0.20;;;;;;;9.61;91.08;100276.13;5135681;28;20027;-81
2023/01/11 02:56:31;;;;;;;0.20;0.20;;;;;;;9.67;90.31;100275.06;5134972;28;21763;-80
2023/01/11 02:59:04;;;;;;;0.30;0.30;;;;;;;9.70;90.38;100280.22;5147264;28;20109;-81
2023/01/11 03:01:43;;;;;;;0.20;0.20;;;;;;;9.68;90.36;100276.78;5136915;28;20074;-81
2023/01/11 03:04:35;;;;;;;0.20;0.20;;;;;;;9.63;90.79;100273.44;5136496;28;20075;-80
2023/01/11 03:07:28;;;;;;;0.20;0.20;;;;;;;9.71;90.18;100274.06;5135644;28;20098;-81
2023/01/11 03:10:20;;;;;;;0.30;0.30;;;;;;;9.75;89.50;100256.50;5132789;28;20078;-80
2023/01/11 03:12:50;;;;;;;0.30;0.30;;;;;;;9.75;89.76;100246.88;5139382;28;20058;-81
2023/01/11 03:15:30;;;;;;;0.22;0.22;;;;;;;9.73;89.57;100253.91;5153602;28;20043;-81
2023/01/11 03:18:19;;;;;;;0.20;0.20;;;;;;;9.78;89.73;100256.41;5119850;28;20134;-81
2023/01/11 03:20:58;;;;;;;0.20;0.20;;;;;;;9.82;89.44;100252.78;5113950;28;20042;-81
2023/01/11 03:23:49;;;;;;;0.30;0.30;;;;;;;9.81;89.64;100253.69;5147571;28;20090;-81
2023/01/11 03:26:29;;;;;;;0.30;0.30;;;;;;;9.89;90.38;100263.91;5148742;28;20373;-82
2023/01/11 03:29:00;;;;;;;0.47;0.47;;;;;;;9.88;90.86;100256.97;5134843;28;20034;-82
2023/01/11 03:31:39;;;;;;;0.20;0.20;;;;;;;9.89;91.36;100263.91;5120870;28;20492;-81
2023/01/11 03:34:17;;;;;;;0.20;0.20;;;;;;;9.89;92.12;100263.91;5138454;28;20404;-82
2023/01/11 03:36:57;;;;;;;0.30;0.30;;;;;;;9.89;92.29;100269.16;5134053;28;20113;-82
2023/01/11 03:40:02;;;;;;;0.28;0.28;;;;;;;9.84;93.21;100256.19;5138017;28;20094;-83
2023/01/11 03:43:09;;;;;;;0.30;0.30;;;;;;;9.87;93.16;100253.50;5120784;28;20414;-81
2023/01/11 03:45:31;;;;;;;0.20;0.20;;;;;;;9.87;93.70;100250.88;5136491;28;20911;-82
2023/01/11 03:48:06;;;;;;;0.20;0.20;;;;;;;9.85;93.77;100257.91;5136809;28;20089;-81
2023/01/11 03:50:36;;;;;;;0.30;0.30;;;;;;;9.83;94.56;100251.00;5134047;28;20039;-81
2023/01/11 03:53:09;;;;;;;0.30;0.30;;;;;;;9.83;94.61;100251.91;5142006;28;20045;-80
2023/01/11 03:55:43;;;;;;;0.20;0.20;;;;;;;9.86;94.35;100254.41;5137787;28;20043;-81
2023/01/11 03:58:14;;;;;;;0.30;0.30;;;;;;;9.84;95.18;100247.50;5156702;28;20496;-82
2023/01/11 04:00:45;;;;;;;0.20;0.20;;;;;;;9.83;95.31;100249.28;5156418;28;20054;-81
2023/01/11 04:03:15;;;;;;;0.20;0.20;;;;;;;9.83;95.22;100249.28;5131708;28;20057;-80
2023/01/11 04:05:51;;;;;;;0.30;0.30;;;;;;;9.83;95.25;100237.91;5134893;28;20039;-83
2023/01/11 04:08:21;;;;;;;0.30;0.30;;;;;;;9.85;95.49;100242.19;5154003;28;20059;-81
2023/01/11 04:10:52;;;;;;;0.30;0.30;;;;;;;9.87;94.88;100250.88;5151347;28;20065;-80
2023/01/11 04:13:22;;;;;;;0.20;0.20;;;;;;;9.88;95.25;100236.88;5132601;28;20031;-81
2023/01/11 04:15:53;;;;;;;0.30;0.30;;;;;;;9.88;95.71;100236.88;5118122;28;20038;-81
2023/01/11 04:18:23;;;;;;;0.30;0.30;;;;;;;9.85;96.16;100230.88;5127998;28;20035;-81
2023/01/11 04:20:54;;;;;;;0.20;0.20;;;;;;;9.84;95.99;100229.16;5120131;28;20101;-80
2023/01/11 04:23:25;;;;;;;0.25;0.25;;;;;;;9.84;95.93;100223.91;5137998;28;20027;-81
2023/01/11 04:25:55;;;;;;;0.20;0.20;;;;;;;9.87;95.66;100224.66;5135094;28;20118;-81
2023/01/11 04:28:25;;;;;;;0.30;0.30;;;;;;;9.87;96.22;100223.81;5140961;28;20031;-81
2023/01/11 04:30:56;;;;;;;0.30;0.30;;;;;;;9.84;96.33;100218.66;5120909;28;20137;-79
2023/01/11 04:33:26;;;;;;;0.73;0.73;;;;;;;9.90;95.72;100228.94;5141475;28;20035;-81
2023/01/11 04:35:57;;;;;;;0.77;0.77;;;;;;;9.90;96.41;100218.47;5164862;28;20201;-80
2023/01/11 04:38:27;;;;;;;0.30;0.30;;;;;;;9.90;96.05;100219.34;5157339;28;20023;-81
2023/01/11 04:43:47;;;;;;;0.30;0.30;;;;;;;9.83;96.98;100225.69;5155391;28;20027;-81
2023/01/11 04:46:17;;;;;;;0.30;0.30;;;;;;;9.86;96.73;100211.63;5149081;28;20046;-80
2023/01/11 04:48:48;;;;;;;0.30;0.30;;;;;;;9.90;96.24;100214.09;5153777;28;20038;-81
2023/01/11 04:51:19;;;;;;;0.20;0.20;;;;;;;9.90;96.67;100218.47;5149744;28;20667;-82
2023/01/11 04:53:49;;;;;;;0.30;0.30;;;;;;;9.91;96.55;100220.19;5138515;28;20029;-81
2023/01/11 04:56:20;;;;;;;0.20;0.20;;;;;;;9.90;96.89;100214.09;5158783;28;20035;-81
2023/01/11 04:58:50;;;;;;;0.30;0.30;;;;;;;9.93;96.13;100213.13;5169742;28;20035;-81
2023/01/11 05:01:21;;;;;;;0.20;0.20;;;;;;;9.92;96.54;100212.25;5157212;28;20030;-81
2023/01/11 05:03:52;;;;;;;0.63;0.47;;;;;;;9.93;96.91;100218.38;5154943;28;20029;-81
2023/01/11 05:06:22;;;;;;;0.20;0.20;;;;;;;9.95;96.48;100200.84;5111451;28;20054;-81
2023/01/11 05:08:53;;;;;;;0.30;0.30;;;;;;;9.96;96.55;100217.41;5135326;28;20077;-81
2023/01/11 05:11:23;;;;;;;0.30;0.30;;;;;;;9.92;96.85;100219.28;5142355;28;20117;-81
2023/01/11 05:13:54;;;;;;;0.30;0.30;;;;;;;9.95;97.04;100221.81;5149930;28;20039;-82
2023/01/11 05:16:24;;;;;;;0.20;0.20;;;;;;;9.98;96.13;100226.09;5152647;28;20031;-82
2023/01/11 05:18:57;;;;;;;0.30;0.30;;;;;;;9.96;96.55;100218.25;5155523;28;20039;-82
2023/01/11 05:21:33;;;;;;;0.30;0.30;;;;;;;10.01;96.66;100208.50;5132251;28;20038;-81
2023/01/11 05:24:06;;;;;;;0.40;0.40;;;;;;;10.00;97.10;100219.03;5138132;28;20031;-82
2023/01/11 05:26:38;;;;;;;0.30;0.30;;;;;;;9.97;96.86;100211.28;5120319;28;20110;-82
2023/01/11 05:29:12;;;;;;;0.20;0.20;;;;;;;9.97;96.71;100219.97;5135038;28;20054;-82
2023/01/11 05:31:43;;;;;;;0.22;0.22;;;;;;;9.97;97.59;100222.59;5133536;28;20039;-82
2023/01/11 05:34:14;;;;;;;0.30;0.30;;;;;;;9.99;97.15;100223.41;5132215;28;20599;-81
2023/01/11 05:36:44;;;;;;;0.30;0.30;;;;;;;9.98;97.27;100220.84;5118105;28;20035;-82
2023/01/11 05:39:15;;;;;;;0.30;0.30;;;;;;;9.96;97.41;100223.50;5128497;28;20023;-82
2023/01/11 05:41:45;;;;;;;0.30;0.30;;;;;;;10.04;96.84;100226.72;5151734;28;20128;-81
2023/01/11 05:47:05;;;;;;;0.60;0.60;;;;;;;10.09;96.48;100221.34;5151249;28;20031;-82
2023/01/11 05:49:36;;;;;;;0.30;0.30;;;;;;;10.09;96.62;100223.97;5133265;28;20275;-83
2023/01/11 05:52:06;;;;;;;0.30;0.30;;;;;;;10.07;97.16;100231.88;5148205;28;20045;-82
2023/01/11 05:54:37;;;;;;;0.20;0.20;;;;;;;10.06;97.53;100214.44;5133820;28;20019;-81
2023/01/11 05:57:10;;;;;;;0.20;0.20;;;;;;;10.06;97.22;100219.69;5139196;28;20063;-81
2023/01/11 05:59:40;;;;;;;0.30;0.30;;;;;;;10.09;97.10;100213.47;5153026;28;20027;-82
2023/01/11 06:02:11;;;;;;;0.50;0.50;;;;;;;10.08;97.18;100214.41;5136046;28;20446;-83
2023/01/11 06:04:41;;;;;;;0.30;0.30;;;;;;;10.08;97.98;100206.53;5149741;28;20035;-82
2023/01/11 06:07:12;;;;;;;0.20;0.20;;;;;;;10.05;98.07;100201.38;5151853;28;20097;-80
2023/01/11 06:09:42;;;;;;;0.20;0.20;;;;;;;10.12;97.61;100212.53;5131344;28;20085;-81
2023/01/11 06:12:13;;;;;;;0.30;0.30;;;;;;;10.10;97.77;100201.25;5131336;28;20035;-82
2023/01/11 06:14:44;;;;;;;0.20;0.20;;;;;;;10.06;97.50;100214.44;5138912;28;20022;-81
2023/01/11 06:17:14;;;;;;;0.20;0.20;;;;;;;10.08;97.85;100207.38;5150867;28;20466;-81
2023/01/11 06:19:45;;;;;;;0.20;0.20;;;;;;;10.11;97.39;100218.69;5136778;28;20126;-81
2023/01/11 06:22:15;;;;;;;0.30;0.30;;;;;;;10.08;97.80;100215.25;5117321;28;20067;-82
2023/01/11 06:24:46;;;;;;;0.22;0.22;;;;;;;10.08;97.56;100217.03;5135908;28;20027;-82
2023/01/11 06:27:17;;;;;;;0.20;0.20;;;;;;;10.11;97.69;100221.31;5136831;28;20031;-82
2023/01/11 06:29:47;;;;;;;0.30;0.30;;;;;;;10.07;97.87;100226.63;5155384;28;20096;-82
2023/01/11 06:32:18;;;;;;;0.20;0.20;;;;;;;10.14;97.87;100222.06;5137455;28;20094;-82
2023/01/11 06:34:48;;;;;;;0.85;0.50;;;;;;;10.13;98.21;100216.84;5137204;28;20026;-81
2023/01/11 06:37:18;;;;;;;1.55;1.00;;;;;;;10.12;98.20;100217.78;5134879;28;20125;-82
2023/01/11 06:39:49;;;;;;;0.28;0.28;;;;;;;10.16;97.59;100224.63;5149922;28;20059;-82
2023/01/11 06:42:19;;;;;;;0.30;0.30;;;;;;;10.17;97.91;100221.94;5128872;28;20042;-82
2023/01/11 06:44:50;;;;;;;0.20;0.20;;;;;;;10.16;97.18;100220.25;5134724;28;20567;-82
2023/01/11 06:47:20;;;;;;;0.30;0.30;;;;;;;10.15;98.29;100225.53;5137467;28;20054;-82
2023/01/11 06:49:51;;;;;;;0.20;0.20;;;;;;;10.18;97.77;100239.38;5129361;28;20033;-82
2023/01/11 06:52:22;;;;;;;0.20;0.20;;;;;;;10.17;97.71;100235.03;5129433;28;20625;-83
2023/01/11 06:54:52;;;;;;;0.85;0.85;;;;;;;10.16;97.72;100251.72;5154574;28;20027;-82
2023/01/11 06:57:23;;;;;;;0.30;0.30;;;;;;;10.20;97.36;100257.72;5111577;28;20050;-82
2023/01/11 06:59:53;;;;;;;0.20;0.20;;;;;;;10.19;97.63;100259.47;5113730;28;20035;-83
2023/01/11 07:02:24;;;;;;;0.30;0.30;;;;;;;10.21;96.65;100254.16;5127116;28;20042;-82
2023/01/11 07:04:54;;;;;;;0.20;0.20;;;;;;;10.18;97.41;100262.13;5148527;28;20030;-82
2023/01/11 07:07:25;;;;;;;0.20;0.20;;;;;;;10.21;97.27;100264.63;5147905;28;20514;-82
2023/01/11 07:09:55;;;;;;;0.38;0.38;;;;;;;10.21;97.53;100259.41;5136156;28;20033;-82
2023/01/11 07:12:25;;;;;;;0.30;0.30;;;;;;;10.23;96.59;100268.06;5134838;28;20134;-82
2023/01/11 07:14:56;;;;;;;0.30;0.30;;;;;;;10.21;96.95;100280.38;5138906;28;20026;-81
2023/01/11 07:17:26;;;;;;;0.30;0.30;;;;;;;10.20;96.73;100282.16;5139041;28;20054;-82
2023/01/11 07:19:57;;;;;;;0.20;0.20;;;;;;;10.20;96.79;100290.00;5164710;28;20032;-82
2023/01/11 07:22:27;;;;;;;0.70;0.70;;;;;;;10.21;96.91;100291.72;5154634;28;20263;-82
2023/01/11 07:24:58;;;;;;;0.20;0.20;;;;;;;10.19;96.84;100303.19;5163806;28;20587;-82
2023/01/11 07:27:28;;;;;;;0.50;0.50;;;;;;;10.24;96.77;100303.88;5155872;28;20081;-82
2023/01/11 07:29:59;;;;;;;0.25;0.25;;;;;;;10.19;97.13;100306.66;5122795;28;20126;-82
2023/01/11 07:32:30;;;;;;;0.30;0.30;;;;;;;10.20;97.02;100312.75;5114498;28;20035;-82
2023/01/11 07:35:00;;;;;;;0.30;0.30;;;;;;;10.19;97.22;100318.91;5135595;28;20042;-82
2023/01/11 07:37:31;;;;;;;0.20;0.20;;;;;;;10.18;97.12;100322.44;5134777;28;20045;-81
2023/01/11 07:40:02;;;;;;;0.30;0.30;;;;;;;10.14;97.50;100321.69;5152206;28;20118;-83
2023/01/11 07:45:21;;;;;;;0.20;0.20;;;;;;;10.18;97.59;100309.31;5136782;28;20051;-82
2023/01/11 07:47:52;;;;;;;0.30;0.30;;;;;;;10.12;97.11;100296.44;5153675;28;20031;-82
2023/01/11 07:50:22;;;;;;;0.30;0.30;;;;;;;10.16;96.73;100295.41;5117255;28;20284;-81
2023/01/11 07:52:53;;;;;;;0.20;0.20;;;;;;;10.12;97.06;100292.03;5152858;28;20051;-82
2023/01/11 07:55:24;;;;;;;0.45;0.45;;;;;;;10.12;96.95;100293.81;5151673;28;20061;-82
2023/01/11 07:57:58;;;;;;;0.35;0.35;;;;;;;10.11;97.01;100310.44;5131857;28;20035;-82
2023/01/11 08:00:29;;;;;;;1.10;1.10;;;;;;;10.07;96.93;100321.00;5136703;28;20046;-81
2023/01/11 08:03:00;;;;;;;0.40;0.40;;;;;;;10.10;96.91;100340.16;5129911;28;20156;-82
2023/01/11 08:05:30;;;;;;;0.95;0.73;;;;;;;10.11;96.88;100344.50;5145496;28;20092;-81
2023/01/11 08:08:01;;;;;;;0.20;0.20;;;;;;;10.08;96.95;100333.22;5153590;28;20089;-82
2023/01/11 08:10:32;;;;;;;0.20;0.20;;;;;;;10.07;96.71;100334.13;5136526;28;20045;-82
2023/01/11 08:15:54;;;;;;;0.30;0.30;;;;;;;10.07;96.39;100335.88;5161345;28;20161;-82
2023/01/11 08:18:25;;;;;;;0.70;0.70;;;;;;;10.06;96.82;100335.00;5114222;28;20053;-81
2023/01/11 08:20:56;;;;;;;0.30;0.30;;;;;;;10.07;96.56;100339.34;5146583;28;20106;-82
2023/01/11 08:23:30;;;;;;;0.30;0.30;;;;;;;10.06;96.66;100345.50;5165276;28;20062;-82
2023/01/11 08:26:01;;;;;;;0.20;0.20;;;;;;;10.06;96.64;100361.22;5138373;28;20042;-81
2023/01/11 08:28:31;;;;;;;0.73;0.73;;;;;;;10.06;96.80;100366.47;5135927;28;20054;-81
2023/01/11 08:31:07;;;;;;;0.22;0.22;;;;;;;10.08;96.54;100374.31;5141789;28;20031;-82
2023/01/11 08:33:37;;;;;;;0.28;0.28;;;;;;;10.04;97.53;100384.00;5143438;28;20039;-82
2023/01/11 08:36:10;;;;;;;0.30;0.30;;;;;;;10.07;96.82;100390.94;5128589;28;20077;-81
2023/01/11 08:38:40;;;;;;;0.30;0.30;;;;;;;10.12;96.71;100385.56;5166401;28;20561;-82
2023/01/11 08:41:11;;;;;;;0.60;0.60;;;;;;;10.08;96.96;100385.63;5165360;28;20046;-82
2023/01/11 08:43:42;;;;;;;0.30;0.30;;;;;;;10.07;97.33;100389.16;5152421;28;20162;-82
2023/01/11 08:46:12;;;;;;;0.30;0.30;;;;;;;10.10;96.61;100387.34;5129581;28;20039;-81
2023/01/11 08:48:45;;;;;;;0.43;0.43;;;;;;;10.07;96.95;100396.19;5147166;28;20037;-82
2023/01/11 08:51:17;;;;;;;0.43;0.43;;;;;;;10.06;96.83;100397.94;5146186;28;20651;-82
2023/01/11 08:53:47;;;;;;;0.45;0.45;;;;;;;10.09;96.28;100407.44;5145201;28;20109;-82
2023/01/11 08:56:18;;;;;;;0.30;0.30;;;;;;;10.07;96.57;100410.13;5152692;28;20043;-81
2023/01/11 08:58:48;;;;;;;2.63;0.88;;;;;;;10.12;96.00;100422.25;5163515;28;20054;-82
2023/01/11 09:01:18;;;;;;;0.43;0.43;;;;;;;10.11;95.95;100420.53;5153855;28;20049;-82
2023/01/11 09:03:49;;;;;;;0.73;0.73;;;;;;;10.09;96.08;100428.44;5137328;28;20023;-81
2023/01/11 09:06:21;;;;;;;0.60;0.60;;;;;;;10.10;96.16;100429.31;5137665;28;20038;-82
2023/01/11 09:08:51;;;;;;;0.47;0.47;;;;;;;10.11;95.71;100433.66;5132153;28;20026;-81
2023/01/11 09:14:11;;;;;;;1.55;0.77;;;;;;;10.14;95.31;100444.03;5139560;28;20041;-82
2023/01/11 09:16:41;;;;;;;0.88;0.88;;;;;;;10.11;95.20;100450.22;5152864;28;20504;-82
2023/01/11 09:19:12;;;;;;;0.55;0.55;;;;;;;10.12;94.94;100454.56;5153954;28;20034;-81
2023/01/11 09:21:44;;;;;;;3.63;1.52;;;;;;;10.18;94.72;100469.25;5151682;28;20050;-83
2023/01/11 09:24:15;;;;;;;0.40;0.40;;;;;;;10.17;94.38;100455.28;5138797;28;20018;-82
2023/01/11 09:26:45;;;;;;;1.17;0.77;;;;;;;10.17;93.91;100465.75;5133631;28;20041;-82
2023/01/11 09:29:17;;;;;;;6.40;1.75;;;;;;;10.11;93.95;100472.97;5138362;28;20027;-83
2023/01/11 09:31:48;;;;;;;0.73;0.73;;;;;;;10.10;94.39;100481.72;5116810;28;20039;-84
2023/01/11 09:34:19;;;;;;;0.30;0.30;;;;;;;10.12;93.71;100475.53;5153783;28;20038;-84
2023/01/11 09:36:50;;;;;;;0.40;0.40;;;;;;;10.13;92.89;100489.50;5154808;28;20050;-81
2023/01/11 09:39:24;;;;;;;0.30;0.30;;;;;;;10.08;92.74;100484.41;5133214;28;20221;-83
2023/01/11 09:42:14;;;;;;;0.38;0.38;;;;;;;10.10;92.38;100490.44;5133379;28;20038;-82
2023/01/11 09:44:53;;;;;;;0.45;0.45;;;;;;;10.13;92.18;100502.59;5135449;28;20062;-82
2023/01/11 09:47:44;;;;;;;0.68;0.68;;;;;;;10.13;91.80;100500.84;5141959;28;20637;-82
2023/01/11 09:50:27;;;;;;;0.43;0.43;;;;;;;10.11;91.97;100520.16;5129547;28;20556;-81
2023/01/11 09:53:08;;;;;;;0.30;0.30;;;;;;;10.07;91.39;100515.00;5124444;28;20023;-81
2023/01/11 09:55:43;;;;;;;0.85;0.82;;;;;;;10.04;90.87;100507.19;5124015;28;20035;-81
2023/01/11 09:58:47;;;;;;;0.88;0.55;;;;;;;10.12;90.69;100508.78;5155800;28;20039;-81
2023/01/11 10:01:37;;;;;;;;;;;;;;;10.09;90.14;100525.41;5133774;28;20046;-82
2023/01/11 10:04:31;;;;;;;1.05;0.85;;;;;;;10.06;89.97;100536.00;5121793;28;19917;-82
2023/01/11 10:07:21;;;;;;;0.30;0.30;;;;;;;10.03;89.24;100544.81;5154494;28;20070;-81
2023/01/11 10:10:01;;;;;;;0.80;0.80;;;;;;;10.01;89.52;100551.88;5152198;28;20118;-82
2023/01/11 10:12:47;;;;;;;0.30;0.30;;;;;;;10.00;89.54;100555.38;5129568;28;20038;-81
2023/01/11 10:15:30;;;;;;;0.60;0.60;;;;;;;10.03;88.57;100550.06;5137417;28;20073;-82
2023/01/11 10:18:09;;;;;;;0.75;0.75;;;;;;;10.05;88.59;100557.88;5152666;28;20055;-82
2023/01/11 10:20:49;;;;;;;2.40;1.33;;;;;;;10.03;88.10;100568.41;5123322;28;20654;-82
2023/01/11 10:23:53;;;;;;;2.80;1.55;;;;;;;10.11;87.22;100569.97;5148868;28;20267;-83
2023/01/11 10:26:27;;;;;;;0.93;0.90;;;;;;;10.06;87.49;100578.81;5100788;28;20078;-82
2023/01/11 10:29:29;;;;;;;1.27;0.82;;;;;;;10.06;86.28;100593.69;5127556;28;20529;-81
2023/01/11 10:34:58;;;;;;;0.90;0.77;;;;;;;9.98;86.01;100587.78;5149575;28;20526;-82
2023/01/11 10:41:13;;;;;;;0.75;0.60;;;;;;;9.93;84.42;100590.53;5122518;28;20754;-82
2023/01/11 10:43:48;;;;;;;1.02;1.02;;;;;;;9.88;84.71;100584.53;5135812;28;20533;-82
2023/01/11 10:46:25;;;;;;;0.82;0.82;;;;;;;9.84;83.86;100589.00;5119777;28;20031;-82
2023/01/11 10:49:28;;;;;;;0.38;0.38;;;;;;;9.95;83.73;100578.25;5134350;28;20077;-81
2023/01/11 10:52:13;;;;;;;0.43;0.43;;;;;;;9.90;82.82;100581.00;5121042;28;20043;-82
2023/01/11 10:54:44;;;;;;;2.65;2.15;;;;;;;9.90;83.13;100582.72;5123417;28;20038;-82
2023/01/11 10:57:33;;;;;;;0.65;0.65;;;;;;;9.91;83.42;100579.22;5152340;28;20422;-82
2023/01/11 11:00:20;;;;;;;0.63;0.63;;;;;;;9.88;82.83;100582.78;5150636;28;20104;-82
2023/01/11 11:03:15;;;;;;;0.28;0.28;;;;;;;9.85;82.76;100588.09;5147442;28;20769;-82
2023/01/11 11:05:52;;;;;;;1.42;1.13;;;;;;;9.81;83.17;100581.22;5120494;28;20062;-82
2023/01/11 11:08:50;;;;;;;0.30;0.30;;;;;;;9.86;82.59;100584.56;5151971;28;20038;-81
2023/01/11 11:11:37;;;;;;;0.77;0.77;;;;;;;9.84;81.29;100586.38;5153230;28;20129;-82
2023/01/11 11:14:28;;;;;;;0.40;0.40;;;;;;;9.83;81.91;100589.03;5138990;28;20343;-82
2023/01/11 11:17:39;;;;;;;0.98;0.98;;;;;;;9.77;81.48;100596.16;5111482;28;20043;-82
2023/01/11 11:20:24;;;;;;;0.73;0.73;;;;;;;9.79;80.75;100592.66;5079993;29;20032;-81
2023/01/11 11:22:56;;;;;;;0.60;0.60;;;;;;;9.78;81.40;100594.41;5062970;29;20028;-81
2023/01/11 11:25:29;;;;;;;0.30;0.30;;;;;;;9.77;81.07;100597.91;5098179;28;20034;-81
2023/01/11 11:28:23;;;;;;;1.13;0.88;;;;;;;9.82;81.21;100595.19;5134901;28;20241;-81
2023/01/11 11:30:57;;;;;;;0.85;0.85;;;;;;;9.83;80.68;100584.69;5120316;28;20039;-81
2023/01/11 11:33:30;;;;;;;0.98;0.98;;;;;;;9.80;80.81;100578.63;5136287;28;20069;-81
2023/01/11 11:36:06;;;;;;;;;;;;;;;9.77;80.35;100576.94;5135422;28;20039;-81
2023/01/11 11:38:40;;;;;;;0.30;0.30;;;;;;;9.81;79.67;100583.84;5144213;28;19917;-81
2023/01/11 11:41:13;;;;;;;0.43;0.43;;;;;;;9.79;78.95;100587.41;5121457;28;20055;-81
2023/01/11 11:43:46;;;;;;;0.30;0.30;;;;;;;9.72;77.97;100597.19;5148993;28;20390;-81
2023/01/11 11:46:25;;;;;;;0.30;0.30;;;;;;;9.68;78.12;100612.13;5133792;28;20093;-81
2023/01/11 11:49:16;;;;;;;1.98;1.05;;;;;;;9.65;77.81;100604.31;5134620;28;20067;-81
2023/01/11 11:52:08;;;;;;;0.30;0.30;;;;;;;9.68;77.42;100606.00;5134080;28;20051;-82
2023/01/11 11:54:42;;;;;;;0.50;0.50;;;;;;;9.60;75.77;100603.59;5132414;28;20532;-81
2023/01/11 11:57:20;;;;;;;0.55;0.55;;;;;;;9.74;76.33;100598.84;5137535;28;20043;-80
2023/01/11 12:00:04;;;;;;;0.30;0.30;;;;;;;9.79;75.79;100593.50;5146285;28;20023;-79
2023/01/11 12:02:40;;;;;;;0.22;0.22;;;;;;;9.71;75.55;100612.03;5141997;28;20077;-80
2023/01/11 12:05:11;;;;;;;0.40;0.40;;;;;;;9.86;75.90;100615.19;5122385;28;20027;-80
2023/01/11 12:07:44;;;;;;;0.65;0.65;;;;;;;9.84;76.15;100614.34;5158977;28;20470;-80
2023/01/11 12:10:20;;;;;;;1.00;1.00;;;;;;;9.83;75.48;100615.25;5141563;28;20696;-80
2023/01/11 12:13:02;;;;;;;1.50;1.20;;;;;;;9.80;75.98;100604.84;5160179;28;20030;-80
2023/01/11 12:15:33;;;;;;;2.38;1.50;;;;;;;9.77;76.14;100603.16;5132792;28;20039;-80
2023/01/11 12:18:21;;;;;;;0.73;0.73;;;;;;;9.77;76.45;100605.78;5145492;28;20041;-80
2023/01/11 12:20:53;;;;;;;0.47;0.47;;;;;;;9.91;76.29;100602.81;5128610;28;20031;-80
2023/01/11 12:23:25;;;;;;;0.50;0.50;;;;;;;9.96;76.03;100610.53;5141859;28;20046;-81
2023/01/11 12:25:58;;;;;;;2.75;1.70;;;;;;;10.03;75.77;100607.75;5159029;28;20035;-80
2023/01/11 12:28:43;;;;;;;;;;;;;;;10.07;75.96;100606.75;5149742;28;20069;-80
2023/01/11 12:31:22;;;;;;;2.17;1.30;;;;;;;10.13;75.40;100604.84;5152318;28;19924;-80
2023/01/11 12:33:58;;;;;;;0.68;0.68;;;;;;;10.23;75.80;100598.44;5131462;28;20095;-80
2023/01/11 12:36:50;;;;;;;0.30;0.30;;;;;;;10.29;75.23;100600.91;5136354;28;20926;-81
2023/01/11 12:39:29;;;;;;;1.35;1.10;;;;;;;10.26;74.48;100614.13;5128567;28;20027;-81
2023/01/11 12:42:19;;;;;;;3.30;2.30;;;;;;;10.29;73.42;100608.75;5137120;28;20037;-82
2023/01/11 12:44:56;;;;;;;2.88;1.65;;;;;;;10.30;72.48;100614.88;5139430;28;20027;-84
2023/01/11 12:47:57;;;;;;;0.60;0.60;;;;;;;10.28;71.57;100609.69;5168445;28;20039;-82